Time;durP1;ratioP1;P1;durP2;ratioP2;P2;SDS_P1;SDS_P2;PMS_P1;PMS_P2;Temp;Humidity;BMP_temperature;BMP_pressure;BME280_temperature;BME280_humidity;BME280_pressure;Samples;Min_cycle;Max_cycle;Signal;HPM_P1;HPM_P2
2022/03/11 00:00:37;;;;;;;20.75;8.63;;;;;;;-141.50;100.00;63355.56;5030843;28;20045;-77
2022/03/11 00:03:03;;;;;;;21.23;8.20;;;;;;;-141.50;100.00;63355.56;5032720;28;20060;-78
2022/03/11 00:05:30;;;;;;;22.52;8.70;;;;;;;-141.50;100.00;63355.56;5031142;28;20460;-78
2022/03/11 00:07:57;;;;;;;19.48;7.90;;;;;;;-141.50;100.00;63355.56;5029902;28;20052;-79
2022/03/11 00:10:23;;;;;;;23.10;8.48;;;;;;;-141.50;100.00;63355.56;5029531;28;20041;-78
2022/03/11 00:12:50;;;;;;;20.42;8.18;;;;;;;-141.50;100.00;63355.56;5030796;28;20068;-78
2022/03/11 00:15:16;;;;;;;21.67;7.95;;;;;;;-141.50;100.00;63355.56;5031264;28;20049;-78
2022/03/11 00:17:43;;;;;;;21.60;7.97;;;;;;;-141.50;100.00;63355.56;5026665;28;20137;-78
2022/03/11 00:20:10;;;;;;;20.65;7.95;;;;;;;-141.50;100.00;63355.56;5030205;28;20504;-79
2022/03/11 00:22:36;;;;;;;17.80;7.57;;;;;;;-141.50;100.00;63355.56;5030328;28;20123;-78
2022/03/11 00:25:03;;;;;;;16.13;7.45;;;;;;;-141.50;100.00;63355.56;5028938;28;20183;-78
2022/03/11 00:27:30;;;;;;;19.23;7.78;;;;;;;-141.50;100.00;63355.56;5029150;28;20107;-79
2022/03/11 00:29:56;;;;;;;18.38;7.72;;;;;;;-141.50;100.00;63355.56;5030694;28;20061;-78
2022/03/11 00:32:23;;;;;;;17.98;7.25;;;;;;;-141.50;100.00;63355.56;5031640;28;20131;-77
2022/03/11 00:34:50;;;;;;;16.48;7.15;;;;;;;-141.50;100.00;63355.56;5030920;28;20107;-78
2022/03/11 00:37:16;;;;;;;17.05;7.85;;;;;;;-141.50;100.00;63355.56;5030396;28;20100;-77
2022/03/11 00:39:43;;;;;;;18.73;7.63;;;;;;;-141.50;100.00;63355.56;5029715;28;20501;-77
2022/03/11 00:42:09;;;;;;;19.40;7.32;;;;;;;-141.50;100.00;63355.56;5034605;28;20045;-76
2022/03/11 00:44:38;;;;;;;18.15;6.70;;;;;;;-141.50;100.00;63355.56;5044990;28;20049;-77
2022/03/11 00:47:04;;;;;;;17.58;7.15;;;;;;;-141.50;100.00;63355.56;5045326;28;20073;-77
2022/03/11 00:49:31;;;;;;;20.67;7.35;;;;;;;-141.50;100.00;63355.56;5030806;28;20079;-78
2022/03/11 00:51:57;;;;;;;20.30;6.85;;;;;;;-141.50;100.00;63355.56;5026962;28;20053;-77
2022/03/11 00:54:25;;;;;;;20.80;7.22;;;;;;;-141.50;100.00;63355.56;5028419;28;20057;-77
2022/03/11 00:56:51;;;;;;;16.20;6.70;;;;;;;-141.50;100.00;63355.56;5028209;28;20049;-77
2022/03/11 00:59:18;;;;;;;13.13;5.97;;;;;;;-141.50;100.00;63355.56;5029465;28;20057;-78
2022/03/11 01:01:44;;;;;;;16.95;6.28;;;;;;;-141.50;100.00;63355.56;5014843;28;20108;-78
2022/03/11 01:04:11;;;;;;;15.48;6.00;;;;;;;-141.50;100.00;63355.56;5008798;28;20077;-77
2022/03/11 01:06:38;;;;;;;14.95;6.00;;;;;;;-141.50;100.00;63355.56;5008729;28;20115;-77
2022/03/11 01:09:06;;;;;;;13.75;5.97;;;;;;;-141.50;100.00;63355.56;5007479;28;20112;-77
2022/03/11 01:11:32;;;;;;;14.35;5.50;;;;;;;-141.50;100.00;63355.56;5008619;28;20084;-77
2022/03/11 01:13:59;;;;;;;12.27;5.25;;;;;;;-141.50;100.00;63355.56;5007610;28;20096;-78
2022/03/11 01:16:27;;;;;;;13.10;5.38;;;;;;;-141.50;100.00;63355.56;5009348;28;20062;-78
2022/03/11 01:18:54;;;;;;;13.25;5.45;;;;;;;-141.50;100.00;63355.56;5005232;28;20050;-77
2022/03/11 01:21:21;;;;;;;19.45;6.38;;;;;;;-141.50;100.00;63355.56;5008839;28;20053;-78
2022/03/11 01:23:47;;;;;;;17.48;6.00;;;;;;;-141.50;100.00;63355.56;5006466;28;20690;-77
2022/03/11 01:26:15;;;;;;;14.88;5.55;;;;;;;-141.50;100.00;63355.56;5008185;28;20069;-78
2022/03/11 01:28:42;;;;;;;15.68;5.22;;;;;;;-141.50;100.00;63355.56;5010092;28;20058;-79
2022/03/11 01:31:11;;;;;;;12.65;4.63;;;;;;;-141.50;100.00;63355.56;5010740;28;20096;-78
2022/03/11 01:33:42;;;;;;;16.17;5.25;;;;;;;-141.50;100.00;63355.56;5010642;28;20482;-79
2022/03/11 01:36:10;;;;;;;13.57;5.32;;;;;;;-141.50;100.00;63355.56;5008784;28;20053;-77
2022/03/11 01:38:37;;;;;;;13.15;5.43;;;;;;;-141.50;100.00;63355.56;5007944;28;20057;-78
2022/03/11 01:41:04;;;;;;;11.48;4.85;;;;;;;-141.50;100.00;63355.56;5008077;28;20131;-78
2022/03/11 01:43:49;;;;;;;11.73;5.25;;;;;;;-141.50;100.00;63355.56;5007989;28;20053;-77
2022/03/11 01:46:16;;;;;;;11.37;5.03;;;;;;;-141.50;100.00;63355.56;5009405;28;20049;-78
2022/03/11 01:48:43;;;;;;;15.43;5.28;;;;;;;-141.50;100.00;63355.56;5007331;28;20301;-76
2022/03/11 01:51:10;;;;;;;14.80;5.32;;;;;;;-141.50;100.00;63355.56;5007203;28;20050;-78
2022/03/11 01:53:36;;;;;;;13.05;4.97;;;;;;;-141.50;100.00;63355.56;5007987;28;20072;-77
2022/03/11 01:56:03;;;;;;;15.52;5.05;;;;;;;-141.50;100.00;63355.56;5005865;28;20050;-77
2022/03/11 01:58:32;;;;;;;12.60;4.88;;;;;;;-141.50;100.00;63355.56;5007892;28;20108;-77
2022/03/11 02:00:58;;;;;;;17.77;5.22;;;;;;;-141.50;100.00;63355.56;5008703;28;20528;-76
2022/03/11 02:03:25;;;;;;;11.88;5.10;;;;;;;-141.50;100.00;63355.56;5009449;28;20062;-78
2022/03/11 02:05:52;;;;;;;15.93;5.28;;;;;;;-141.50;100.00;63355.56;5006710;28;20484;-77
2022/03/11 02:08:19;;;;;;;14.07;5.50;;;;;;;-141.50;100.00;63355.56;5007400;28;20069;-78
2022/03/11 02:10:46;;;;;;;11.77;4.97;;;;;;;-141.50;100.00;63355.56;5006597;28;20724;-78
2022/03/11 02:13:12;;;;;;;14.32;5.03;;;;;;;-141.50;100.00;63355.56;5009688;28;20112;-78
2022/03/11 02:15:39;;;;;;;15.80;5.22;;;;;;;-141.50;100.00;63355.56;5011177;28;20093;-78
2022/03/11 02:18:05;;;;;;;15.40;5.03;;;;;;;-141.50;100.00;63355.56;4993143;28;20050;-79
2022/03/11 02:20:32;;;;;;;15.30;6.15;;;;;;;-141.50;100.00;63355.56;4997104;28;20514;-79
2022/03/11 02:23:00;;;;;;;15.30;5.55;;;;;;;-141.50;100.00;63355.56;4997285;28;20514;-78
2022/03/11 02:25:26;;;;;;;15.43;5.60;;;;;;;-141.50;100.00;63355.56;4995874;28;20069;-78
2022/03/11 02:27:53;;;;;;;15.02;5.88;;;;;;;-141.50;100.00;63355.56;4995991;28;20273;-78
2022/03/11 02:30:21;;;;;;;14.00;6.00;;;;;;;-141.50;100.00;63355.56;4992945;28;20058;-78
2022/03/11 02:32:48;;;;;;;14.02;5.35;;;;;;;-141.50;100.00;63355.56;4993310;28;20128;-79
2022/03/11 02:35:16;;;;;;;11.60;5.18;;;;;;;-141.50;100.00;63355.56;4992781;28;20042;-78
2022/03/11 02:37:43;;;;;;;18.95;6.50;;;;;;;-141.50;100.00;63355.56;4993202;28;20419;-76
2022/03/11 02:40:10;;;;;;;17.02;6.10;;;;;;;-141.50;100.00;63355.56;4992685;28;20292;-79
2022/03/11 02:42:36;;;;;;;15.85;5.57;;;;;;;-141.50;100.00;63355.56;4992162;28;20396;-78
2022/03/11 02:45:04;;;;;;;14.30;5.75;;;;;;;-141.50;100.00;63355.56;4992883;28;20529;-78
2022/03/11 02:47:31;;;;;;;14.27;5.10;;;;;;;-141.50;100.00;63355.56;4993191;28;20142;-78
2022/03/11 02:49:58;;;;;;;11.90;5.25;;;;;;;-141.50;100.00;63355.56;4992074;28;20050;-80
2022/03/11 02:52:26;;;;;;;16.70;6.20;;;;;;;-141.50;100.00;63355.56;5001469;28;20116;-77
2022/03/11 02:54:52;;;;;;;12.52;5.43;;;;;;;-141.50;100.00;63355.56;4999567;28;20557;-77
2022/03/11 02:57:19;;;;;;;18.27;5.68;;;;;;;-141.50;100.00;63355.56;5000111;28;20502;-78
2022/03/11 02:59:46;;;;;;;14.57;5.68;;;;;;;-141.50;100.00;63355.56;5000046;28;20054;-77
2022/03/11 03:02:13;;;;;;;15.68;5.78;;;;;;;-141.50;100.00;63355.56;4992710;28;20046;-77
2022/03/11 03:04:40;;;;;;;12.43;5.43;;;;;;;-141.50;100.00;63355.56;4992254;28;20078;-77
2022/03/11 03:07:07;;;;;;;16.20;5.22;;;;;;;-141.50;100.00;63355.56;4991624;28;20065;-76
2022/03/11 03:09:36;;;;;;;14.93;6.00;;;;;;;-141.50;100.00;63355.56;4989868;28;20057;-77
2022/03/11 03:12:03;;;;;;;16.85;6.20;;;;;;;-141.50;100.00;63355.56;4991169;28;20085;-78
2022/03/11 03:14:30;;;;;;;14.02;5.47;;;;;;;-141.50;100.00;63355.56;4992039;28;20085;-78
2022/03/11 03:16:56;;;;;;;14.63;5.93;;;;;;;-141.50;100.00;63355.56;4992118;28;20050;-77
2022/03/11 03:19:23;;;;;;;15.80;5.57;;;;;;;-141.50;100.00;63355.56;4991640;28;20077;-77
2022/03/11 03:21:49;;;;;;;11.93;5.45;;;;;;;-141.50;100.00;63355.56;4991655;28;20042;-78
2022/03/11 03:24:16;;;;;;;15.00;5.85;;;;;;;-141.50;100.00;63355.56;4991004;28;20050;-78
2022/03/11 03:26:43;;;;;;;17.73;5.95;;;;;;;-141.50;100.00;63355.56;4991756;28;20450;-76
2022/03/11 03:29:09;;;;;;;16.63;6.03;;;;;;;-141.50;100.00;63355.56;4990981;28;20104;-78
2022/03/11 03:31:36;;;;;;;17.63;6.25;;;;;;;-141.50;100.00;63355.56;4992232;28;20046;-78
2022/03/11 03:34:03;;;;;;;18.25;6.20;;;;;;;-141.50;100.00;63355.56;4991565;28;20101;-78
2022/03/11 03:36:29;;;;;;;25.80;6.68;;;;;;;-141.50;100.00;63355.56;4991134;28;20054;-78
2022/03/11 03:38:56;;;;;;;15.70;5.93;;;;;;;-141.50;100.00;63355.56;4989315;28;20241;-77
2022/03/11 03:41:22;;;;;;;13.95;5.72;;;;;;;-141.50;100.00;63355.56;4990275;28;20581;-78
2022/03/11 03:43:49;;;;;;;18.08;5.55;;;;;;;-141.50;100.00;63355.56;4990244;28;20081;-77
2022/03/11 03:46:16;;;;;;;17.23;5.88;;;;;;;-141.50;100.00;63355.56;4990635;28;20469;-78
2022/03/11 03:48:43;;;;;;;16.10;5.95;;;;;;;-141.50;100.00;63355.56;4992065;28;20141;-78
2022/03/11 03:51:10;;;;;;;20.95;6.50;;;;;;;-141.50;100.00;63355.56;4990007;28;20054;-78
2022/03/11 03:53:36;;;;;;;17.13;6.05;;;;;;;-141.50;100.00;63355.56;4991574;28;20101;-78
2022/03/11 03:56:03;;;;;;;15.63;5.75;;;;;;;-141.50;100.00;63355.56;4990806;28;20053;-78
2022/03/11 03:58:30;;;;;;;14.40;6.20;;;;;;;-141.50;100.00;63355.56;4990804;28;20481;-78
2022/03/11 04:00:56;;;;;;;17.40;6.55;;;;;;;-141.50;100.00;63355.56;4992086;28;20431;-78
2022/03/11 04:03:24;;;;;;;18.90;5.60;;;;;;;-141.50;100.00;63355.56;4993365;28;20491;-78
2022/03/11 04:05:50;;;;;;;13.50;5.53;;;;;;;-141.50;100.00;63355.56;4990959;28;20058;-76
2022/03/11 04:08:17;;;;;;;16.42;6.03;;;;;;;-141.50;100.00;63355.56;4991999;28;20467;-78
2022/03/11 04:10:43;;;;;;;15.52;5.90;;;;;;;-141.50;100.00;63355.56;4988851;28;20089;-77
2022/03/11 04:13:10;;;;;;;14.57;5.53;;;;;;;-141.50;100.00;63355.56;5005479;28;20049;-78
2022/03/11 04:15:37;;;;;;;15.82;6.25;;;;;;;-141.50;100.00;63355.56;5016516;28;20073;-76
2022/03/11 04:18:03;;;;;;;14.23;5.75;;;;;;;-141.50;100.00;63355.56;5011792;28;20478;-77
2022/03/11 04:20:30;;;;;;;15.30;6.55;;;;;;;-141.50;100.00;63355.56;4992775;28;20046;-77
2022/03/11 04:22:56;;;;;;;17.05;6.18;;;;;;;-141.50;100.00;63355.56;4990390;28;20511;-78
2022/03/11 04:25:23;;;;;;;15.93;6.57;;;;;;;-141.50;100.00;63355.56;4989887;28;20725;-77
2022/03/11 04:27:50;;;;;;;16.05;6.07;;;;;;;-141.50;100.00;63355.56;4989938;28;20050;-79
2022/03/11 04:30:16;;;;;;;18.58;6.60;;;;;;;-141.50;100.00;63355.56;4991720;28;20493;-77
2022/03/11 04:32:43;;;;;;;15.70;6.30;;;;;;;-141.50;100.00;63355.56;4991814;28;20092;-78
2022/03/11 04:35:09;;;;;;;13.68;5.90;;;;;;;-141.50;100.00;63355.56;4990923;28;20652;-77
2022/03/11 04:37:36;;;;;;;15.30;5.97;;;;;;;-141.50;100.00;63355.56;4990125;28;20058;-78
2022/03/11 04:40:05;;;;;;;13.77;5.88;;;;;;;-141.50;100.00;63355.56;4988902;28;20140;-77
2022/03/11 04:42:32;;;;;;;17.45;5.40;;;;;;;-141.50;100.00;63355.56;4989608;28;20427;-79
2022/03/11 04:44:58;;;;;;;15.20;6.07;;;;;;;-141.50;100.00;63355.56;4997726;28;20057;-77
2022/03/11 04:47:25;;;;;;;17.83;6.80;;;;;;;-141.50;100.00;63355.56;4999241;28;20179;-76
2022/03/11 04:49:52;;;;;;;14.88;5.97;;;;;;;-141.50;100.00;63355.56;5008931;28;20529;-78
2022/03/11 04:52:18;;;;;;;14.50;5.82;;;;;;;-141.50;100.00;63355.56;5012216;28;20054;-76
2022/03/11 04:54:45;;;;;;;16.83;6.43;;;;;;;-141.50;100.00;63355.56;5010380;28;20050;-78
2022/03/11 04:57:12;;;;;;;18.75;6.38;;;;;;;-141.50;100.00;63355.56;5009431;28;20050;-78
2022/03/11 04:59:38;;;;;;;16.98;6.38;;;;;;;-141.50;100.00;63355.56;5010153;28;20674;-78
2022/03/11 05:02:05;;;;;;;15.13;6.45;;;;;;;-141.50;100.00;63355.56;5009659;28;20510;-77
2022/03/11 05:04:31;;;;;;;14.25;6.20;;;;;;;-141.50;100.00;63355.56;5025967;28;20119;-77
2022/03/11 05:06:58;;;;;;;15.27;5.35;;;;;;;-141.50;100.00;63355.56;5010081;28;20069;-78
2022/03/11 05:09:24;;;;;;;15.98;6.15;;;;;;;-141.50;100.00;63355.56;5008476;28;20533;-78
2022/03/11 05:11:51;;;;;;;15.52;5.97;;;;;;;-141.50;100.00;63355.56;5007685;28;20050;-78
2022/03/11 05:14:18;;;;;;;18.02;5.75;;;;;;;-141.50;100.00;63355.56;5009347;28;20468;-77
2022/03/11 05:16:44;;;;;;;16.80;6.20;;;;;;;-141.50;100.00;63355.56;5009325;28;20069;-78
2022/03/11 05:19:11;;;;;;;16.50;6.20;;;;;;;-141.50;100.00;63355.56;5008970;28;20116;-78
2022/03/11 05:21:37;;;;;;;16.92;5.57;;;;;;;-141.50;100.00;63355.56;5009291;28;20141;-78
2022/03/11 05:24:05;;;;;;;14.65;5.75;;;;;;;-141.50;100.00;63355.56;5009272;28;20046;-77
2022/03/11 05:26:31;;;;;;;14.25;6.10;;;;;;;-141.50;100.00;63355.56;5010094;28;20049;-79
2022/03/11 05:28:59;;;;;;;20.48;6.70;;;;;;;-141.50;100.00;63355.56;5009572;28;20050;-79
2022/03/11 05:31:27;;;;;;;17.92;6.03;;;;;;;-141.50;100.00;63355.56;5009202;28;20520;-78
2022/03/11 05:33:55;;;;;;;15.65;6.30;;;;;;;-141.50;100.00;63355.56;5009913;28;20050;-78
2022/03/11 05:36:22;;;;;;;19.70;6.55;;;;;;;-141.50;100.00;63355.56;5009685;28;20050;-78
2022/03/11 05:38:49;;;;;;;14.77;6.10;;;;;;;-141.50;100.00;63355.56;5010810;28;20050;-78
2022/03/11 05:41:16;;;;;;;18.15;5.72;;;;;;;-141.50;100.00;63355.56;5008274;28;20058;-78
2022/03/11 05:43:43;;;;;;;16.70;6.15;;;;;;;-141.50;100.00;63355.56;5010185;28;20080;-77
2022/03/11 05:46:10;;;;;;;20.25;5.93;;;;;;;-141.50;100.00;63355.56;5009278;28;20100;-77
2022/03/11 05:48:39;;;;;;;16.55;6.18;;;;;;;-141.50;100.00;63355.56;5011627;28;20494;-77
2022/03/11 05:51:06;;;;;;;16.88;6.55;;;;;;;-141.50;100.00;63355.56;5012881;28;20046;-77
2022/03/11 05:53:33;;;;;;;13.40;5.93;;;;;;;-141.50;100.00;63355.56;5013119;28;20288;-77
2022/03/11 05:56:00;;;;;;;17.58;5.93;;;;;;;-141.50;100.00;63355.56;5011801;28;20073;-76
2022/03/11 05:58:27;;;;;;;15.95;6.40;;;;;;;-141.50;100.00;63355.56;5012496;28;20057;-77
2022/03/11 06:00:53;;;;;;;13.85;5.93;;;;;;;-141.50;100.00;63355.56;5011928;28;20049;-77
2022/03/11 06:03:20;;;;;;;18.77;6.15;;;;;;;-141.50;100.00;63355.56;5016055;28;20049;-79
2022/03/11 06:05:47;;;;;;;16.90;6.47;;;;;;;-141.50;100.00;63355.56;5019219;28;20092;-78
2022/03/11 06:08:14;;;;;;;18.27;6.50;;;;;;;-141.50;100.00;63355.56;5015838;28;20108;-78
2022/03/11 06:10:42;;;;;;;17.88;6.28;;;;;;;-141.50;100.00;63355.56;5017535;28;20077;-78
2022/03/11 06:13:09;;;;;;;16.08;5.70;;;;;;;-141.50;100.00;63355.56;5021534;28;20367;-78
2022/03/11 06:15:35;;;;;;;20.83;6.03;;;;;;;-141.50;100.00;63355.56;5020949;28;20053;-78
2022/03/11 06:18:02;;;;;;;16.60;5.80;;;;;;;-141.50;100.00;63355.56;5016563;28;20073;-78
2022/03/11 06:20:30;;;;;;;17.45;5.93;;;;;;;-141.50;100.00;63355.56;5012775;28;20107;-78
2022/03/11 06:22:57;;;;;;;12.80;5.78;;;;;;;-141.50;100.00;63355.56;5002220;28;20421;-78
2022/03/11 06:25:24;;;;;;;15.23;5.80;;;;;;;-141.50;100.00;63355.56;4996180;28;20050;-76
2022/03/11 06:27:51;;;;;;;21.70;6.25;;;;;;;-141.50;100.00;63355.56;5002285;28;20377;-78
2022/03/11 06:30:18;;;;;;;16.60;5.95;;;;;;;-141.50;100.00;63355.56;5011788;28;20447;-76
2022/03/11 06:32:47;;;;;;;14.98;6.40;;;;;;;-141.50;100.00;63355.56;5009525;28;20104;-78
2022/03/11 06:35:15;;;;;;;16.90;6.05;;;;;;;-141.50;100.00;63355.56;5006998;28;20124;-78
2022/03/11 06:37:44;;;;;;;16.50;6.03;;;;;;;-141.50;100.00;63355.56;5006765;28;20053;-78
2022/03/11 06:40:12;;;;;;;18.90;6.03;;;;;;;-141.50;100.00;63355.56;5002764;28;20049;-77
2022/03/11 06:42:40;;;;;;;20.30;5.55;;;;;;;-141.50;100.00;63355.56;4991644;28;20073;-77
2022/03/11 06:45:08;;;;;;;15.27;5.70;;;;;;;-141.50;100.00;63355.56;5007403;28;20046;-77
2022/03/11 06:47:34;;;;;;;18.67;5.30;;;;;;;-141.50;100.00;63355.56;5007143;28;20054;-76
2022/03/11 06:50:03;;;;;;;16.38;5.47;;;;;;;-141.50;100.00;63355.56;5008562;28;20062;-78
2022/03/11 06:52:32;;;;;;;15.60;5.65;;;;;;;-141.50;100.00;63355.56;4999618;28;20051;-78
2022/03/11 06:54:59;;;;;;;13.38;5.50;;;;;;;-141.50;100.00;63355.56;4986641;28;20058;-77
2022/03/11 06:57:25;;;;;;;15.88;5.88;;;;;;;-141.50;100.00;63355.56;4999455;28;20477;-78
2022/03/11 06:59:52;;;;;;;15.65;6.38;;;;;;;-141.50;100.00;63355.56;5006722;28;20509;-78
2022/03/11 07:02:19;;;;;;;14.57;5.75;;;;;;;-141.50;100.00;63355.56;5008072;28;20093;-76
2022/03/11 07:04:52;;;;;;;15.50;5.82;;;;;;;-141.50;100.00;63355.56;4996158;28;20133;-78
2022/03/11 07:07:18;;;;;;;15.40;5.75;;;;;;;-141.50;100.00;63355.56;5012850;28;20505;-76
2022/03/11 07:09:45;;;;;;;13.25;5.85;;;;;;;-141.50;100.00;63355.56;5025350;28;20085;-77
2022/03/11 07:12:11;;;;;;;19.75;6.32;;;;;;;-141.50;100.00;63355.56;5021244;28;20182;-77
2022/03/11 07:14:38;;;;;;;14.75;5.90;;;;;;;-141.50;100.00;63355.56;5010822;28;20123;-77
2022/03/11 07:17:06;;;;;;;16.52;5.72;;;;;;;-141.50;100.00;63355.56;5010194;28;20077;-78
2022/03/11 07:19:33;;;;;;;16.70;6.30;;;;;;;-141.50;100.00;63355.56;5009956;28;20058;-77
2022/03/11 07:22:03;;;;;;;16.08;5.43;;;;;;;-141.50;100.00;63355.56;5010208;28;20078;-76
2022/03/11 07:24:29;;;;;;;20.08;6.28;;;;;;;-141.50;100.00;63355.56;5010222;28;20544;-76
2022/03/11 07:26:56;;;;;;;16.85;6.03;;;;;;;-141.50;100.00;63355.56;5008849;28;20085;-77
2022/03/11 07:29:23;;;;;;;15.70;6.10;;;;;;;-141.50;100.00;63355.56;5009924;28;20120;-77
2022/03/11 07:31:50;;;;;;;14.85;6.20;;;;;;;-141.50;100.00;63355.56;5008827;28;20124;-77
2022/03/11 07:34:17;;;;;;;14.55;6.03;;;;;;;-141.50;100.00;63355.56;5002473;28;20227;-79
2022/03/11 07:36:43;;;;;;;17.42;6.20;;;;;;;-141.50;100.00;63355.56;5013047;28;20439;-77
2022/03/11 07:39:10;;;;;;;15.43;5.80;;;;;;;-141.50;100.00;63355.56;5009626;28;20509;-79
2022/03/11 07:41:37;;;;;;;13.57;5.50;;;;;;;-141.50;100.00;63355.56;5014060;28;20359;-80
2022/03/11 07:44:06;;;;;;;14.80;5.40;;;;;;;-141.50;100.00;63355.56;5043003;28;20061;-79
2022/03/11 07:46:42;;;;;;;17.42;5.85;;;;;;;-141.50;100.00;63355.56;5046000;28;20041;-79
2022/03/11 07:49:09;;;;;;;14.82;5.85;;;;;;;-141.50;100.00;63355.56;5034444;28;20045;-78
2022/03/11 07:51:36;;;;;;;13.50;5.32;;;;;;;-141.50;100.00;63355.56;5024215;28;20048;-78
2022/03/11 07:54:02;;;;;;;14.98;5.80;;;;;;;-141.50;100.00;63355.56;5008984;28;20045;-78
2022/03/11 07:56:29;;;;;;;17.23;5.95;;;;;;;-141.50;100.00;63355.56;5009038;28;20445;-78
2022/03/11 07:58:56;;;;;;;13.77;6.13;;;;;;;-141.50;100.00;63355.56;5009473;28;20076;-77
2022/03/11 08:01:23;;;;;;;18.33;5.90;;;;;;;-141.50;100.00;63355.56;5008691;28;20049;-77
2022/03/11 08:03:50;;;;;;;24.00;5.47;;;;;;;-141.50;100.00;63355.56;5010958;28;20046;-78
2022/03/11 08:06:16;;;;;;;16.23;5.88;;;;;;;-141.50;100.00;63355.56;5010433;28;20486;-78
2022/03/11 08:08:43;;;;;;;13.18;5.72;;;;;;;-141.50;100.00;63355.56;5009643;28;20066;-78
2022/03/11 08:11:11;;;;;;;17.80;6.30;;;;;;;-141.50;100.00;63355.56;5008624;28;20104;-78
2022/03/11 08:13:38;;;;;;;16.02;5.72;;;;;;;-141.50;100.00;63355.56;5000541;28;20080;-77
2022/03/11 08:16:10;;;;;;;16.15;5.85;;;;;;;-141.50;100.00;63355.56;4998921;28;20050;-78
2022/03/11 08:18:37;;;;;;;15.00;6.03;;;;;;;-141.50;100.00;63355.56;5001093;28;20473;-78
2022/03/11 08:21:03;;;;;;;16.08;6.25;;;;;;;-141.50;100.00;63355.56;5036495;28;20417;-78
2022/03/11 08:23:30;;;;;;;17.48;6.00;;;;;;;-141.50;100.00;63355.56;5033404;28;20057;-78
2022/03/11 08:25:57;;;;;;;15.73;5.75;;;;;;;-141.50;100.00;63355.56;5030066;28;20453;-77
2022/03/11 08:28:24;;;;;;;19.42;5.32;;;;;;;-141.50;100.00;63355.56;5025173;28;20502;-78
2022/03/11 08:30:50;;;;;;;13.82;5.70;;;;;;;-141.50;100.00;63355.56;5002486;28;20059;-77
2022/03/11 08:33:22;;;;;;;18.35;6.07;;;;;;;-141.50;100.00;63355.56;5001862;28;20054;-77
2022/03/11 08:36:08;;;;;;;11.57;5.15;;;;;;;-141.50;100.00;63355.56;5012900;28;20065;-77
2022/03/11 08:38:38;;;;;;;16.05;5.75;;;;;;;-141.50;100.00;63355.56;5018457;28;20054;-77
2022/03/11 08:41:07;;;;;;;18.73;5.50;;;;;;;-141.50;100.00;63355.56;5001630;28;20545;-78
2022/03/11 08:43:38;;;;;;;13.45;5.43;;;;;;;-141.50;100.00;63355.56;5000667;28;20056;-78
2022/03/11 08:46:09;;;;;;;15.15;5.70;;;;;;;-141.50;100.00;63355.56;5004766;28;20351;-78
2022/03/11 08:48:36;;;;;;;12.27;5.80;;;;;;;-141.50;100.00;63355.56;5012215;28;20054;-78
2022/03/11 08:51:04;;;;;;;12.18;5.40;;;;;;;-141.50;100.00;63355.56;4993921;28;20666;-77
2022/03/11 08:53:31;;;;;;;15.25;5.82;;;;;;;-141.50;100.00;63355.56;4990810;28;20042;-78
2022/03/11 08:55:57;;;;;;;20.33;6.20;;;;;;;-141.50;100.00;63355.56;5016182;28;20449;-78
2022/03/11 08:58:24;;;;;;;14.93;5.43;;;;;;;-141.50;100.00;63355.56;5029272;28;20188;-77
2022/03/11 09:00:50;;;;;;;12.35;5.32;;;;;;;-141.50;100.00;63355.56;5029616;28;20076;-78
2022/03/11 09:03:17;;;;;;;14.38;5.43;;;;;;;-141.50;100.00;63355.56;5029835;28;20540;-75
2022/03/11 09:05:44;;;;;;;12.13;5.63;;;;;;;-141.50;100.00;63355.56;5032042;28;20144;-77
2022/03/11 09:08:10;;;;;;;12.20;5.35;;;;;;;-141.50;100.00;63355.56;5028625;28;20107;-77
2022/03/11 09:10:37;;;;;;;15.60;5.15;;;;;;;-141.50;100.00;63355.56;5002184;28;20046;-79
2022/03/11 09:13:04;;;;;;;14.77;4.85;;;;;;;-141.50;100.00;63355.56;5003732;28;20046;-76
2022/03/11 09:15:30;;;;;;;19.13;5.28;;;;;;;-141.50;100.00;63355.56;4997663;28;20050;-78
2022/03/11 09:17:57;;;;;;;12.18;5.07;;;;;;;-141.50;100.00;63355.56;5008333;28;20060;-78
2022/03/11 09:20:24;;;;;;;13.88;5.05;;;;;;;-141.50;100.00;63355.56;5008198;28;20448;-75
2022/03/11 09:22:58;;;;;;;12.48;4.53;;;;;;;-141.50;100.00;63355.56;5010231;28;20188;-78
2022/03/11 09:25:25;;;;;;;13.18;5.35;;;;;;;-141.50;100.00;63355.56;5008946;28;20046;-78
2022/03/11 09:27:51;;;;;;;17.23;4.75;;;;;;;-141.50;100.00;63355.56;5008548;28;20107;-77
2022/03/11 09:30:18;;;;;;;12.32;5.30;;;;;;;-141.50;100.00;63355.56;5012973;28;20506;-76
2022/03/11 09:32:45;;;;;;;12.55;5.05;;;;;;;-141.50;100.00;63355.56;5028547;28;20056;-79
2022/03/11 09:35:12;;;;;;;15.07;5.40;;;;;;;-141.50;100.00;63355.56;5027396;28;20421;-78
2022/03/11 09:37:39;;;;;;;16.58;5.20;;;;;;;-141.50;100.00;63355.56;5027647;28;20053;-78
2022/03/11 09:40:07;;;;;;;12.75;5.07;;;;;;;-141.50;100.00;63355.56;5018074;28;20433;-77
2022/03/11 09:42:34;;;;;;;14.75;5.43;;;;;;;-141.50;100.00;63355.56;5010452;28;20057;-78
2022/03/11 09:45:00;;;;;;;10.02;4.50;;;;;;;-141.50;100.00;63355.56;5009214;28;20050;-77
2022/03/11 09:47:27;;;;;;;13.85;4.90;;;;;;;-141.50;100.00;63355.56;5008692;28;20484;-78
2022/03/11 09:49:54;;;;;;;9.80;4.82;;;;;;;-141.50;100.00;63355.56;5009716;28;20050;-78
2022/03/11 09:52:20;;;;;;;20.77;4.90;;;;;;;-141.50;100.00;63355.56;5009133;28;20077;-77
2022/03/11 09:54:47;;;;;;;11.77;4.28;;;;;;;-141.50;100.00;63355.56;5008206;28;20085;-77
2022/03/11 09:57:19;;;;;;;11.73;4.40;;;;;;;-141.50;100.00;63355.56;5008179;28;20112;-77
2022/03/11 09:59:45;;;;;;;14.68;4.80;;;;;;;-141.50;100.00;63355.56;5009233;28;20135;-78
2022/03/11 10:02:23;;;;;;;10.45;4.25;;;;;;;-141.50;100.00;63355.56;5009947;28;20158;-78
2022/03/11 10:04:57;;;;;;;9.95;4.57;;;;;;;-141.50;100.00;63355.56;5008920;28;20508;-78
2022/03/11 10:07:44;;;;;;;13.40;4.85;;;;;;;-141.50;100.00;63355.56;5020878;28;20053;-78
2022/03/11 10:10:14;;;;;;;10.63;4.40;;;;;;;-141.50;100.00;63355.56;5028572;28;20050;-79
2022/03/11 10:13:00;;;;;;;17.25;5.45;;;;;;;-141.50;100.00;63355.56;5029770;28;20041;-77
2022/03/11 10:15:29;;;;;;;11.10;4.25;;;;;;;-141.50;100.00;63355.56;5029057;28;20111;-77
2022/03/11 10:17:56;;;;;;;9.57;4.07;;;;;;;-141.50;100.00;63355.56;5028341;28;20131;-77
2022/03/11 10:20:23;;;;;;;16.20;4.90;;;;;;;-141.50;100.00;63355.56;5013049;28;20053;-75
2022/03/11 10:22:50;;;;;;;12.38;4.78;;;;;;;-141.50;100.00;63355.56;5008698;28;20077;-79
2022/03/11 10:25:23;;;;;;;12.23;4.70;;;;;;;-141.50;100.00;63355.56;5007593;28;20131;-76
2022/03/11 10:28:14;;;;;;;11.27;4.47;;;;;;;-141.50;100.00;63355.56;5008014;28;20318;-77
2022/03/11 10:30:44;;;;;;;13.77;5.45;;;;;;;-141.50;100.00;63355.56;5008282;28;20054;-77
2022/03/11 10:33:14;;;;;;;11.90;4.95;;;;;;;-141.50;100.00;63355.56;5009029;28;20426;-78
2022/03/11 10:35:47;;;;;;;13.18;5.00;;;;;;;-141.50;100.00;63355.56;5010950;28;20447;-78
2022/03/11 10:38:16;;;;;;;9.52;4.43;;;;;;;-141.50;100.00;63355.56;5013224;28;20053;-78
2022/03/11 10:40:54;;;;;;;11.13;5.38;;;;;;;-141.50;100.00;63355.56;5011826;28;20577;-77
2022/03/11 10:43:27;;;;;;;13.20;5.40;;;;;;;-141.50;100.00;63355.56;5021970;28;20049;-77
2022/03/11 10:45:55;;;;;;;13.80;5.30;;;;;;;-141.50;100.00;63355.56;5032224;28;20492;-76
2022/03/11 10:48:52;;;;;;;14.60;5.45;;;;;;;-141.50;100.00;63355.56;5032300;28;20125;-76
2022/03/11 10:51:22;;;;;;;8.50;4.93;;;;;;;-141.50;100.00;63355.56;5022031;28;20053;-77
2022/03/11 10:53:49;;;;;;;9.77;5.47;;;;;;;-141.50;100.00;63355.56;5011658;28;20456;-77
2022/03/11 10:56:26;;;;;;;10.90;5.00;;;;;;;-141.50;100.00;63355.56;5010228;28;20112;-77
2022/03/11 10:58:52;;;;;;;13.07;5.47;;;;;;;-141.50;100.00;63355.56;5010937;28;20115;-78
2022/03/11 11:01:37;;;;;;;12.10;5.40;;;;;;;-141.50;100.00;63355.56;5012350;28;20057;-78
2022/03/11 11:04:07;;;;;;;11.32;5.38;;;;;;;-141.50;100.00;63355.56;5008467;28;20120;-76